createdAt,value
2022-08-12T00:01:19.919Z,95798.16
2022-08-12T00:04:27.350Z,95798.56
2022-08-12T00:07:14.845Z,95801.25
2022-08-12T00:10:02.186Z,95798.13
2022-08-12T00:12:50.513Z,95798.94
2022-08-12T00:15:38.923Z,95796.16
2022-08-12T00:18:27.632Z,95793.69
2022-08-12T00:21:15.157Z,95797.84
2022-08-12T00:24:02.469Z,95792.28
2022-08-12T00:26:50.151Z,95796.31
2022-08-12T00:29:37.414Z,95796.16
2022-08-12T00:32:35.785Z,95786.84
2022-08-12T00:35:34.243Z,95785.34
2022-08-12T00:38:24.339Z,95785.28
2022-08-12T00:41:13.156Z,95784.34
2022-08-12T00:43:44.786Z,95783.19
2022-08-12T00:46:31.834Z,95786.31
2022-08-12T00:49:02.632Z,95796.06
2022-08-12T00:51:51.441Z,95792.63
2022-08-12T00:54:21.713Z,95801.69
2022-08-12T00:56:51.695Z,95795.41
2022-08-12T00:59:21.314Z,95800.72
2022-08-12T01:02:00.999Z,95793.63
2022-08-12T01:05:02.160Z,95790.13
2022-08-12T01:07:54.266Z,95788.38
2022-08-12T01:10:41.923Z,95777.09
2022-08-12T01:13:19.314Z,95784.91
2022-08-12T01:15:51.891Z,95776.75
2022-08-12T01:18:27.910Z,95776.25
2022-08-12T01:21:17.842Z,95776.09
2022-08-12T01:24:30.158Z,95777.09
2022-08-12T01:27:01.859Z,95768.25
2022-08-12T01:29:35.204Z,95770.31
2022-08-12T01:32:11.403Z,95770.13
2022-08-12T01:34:46.067Z,95760.78
2022-08-12T01:37:20.866Z,95761.47
2022-08-12T01:40:36.098Z,95757.72
2022-08-12T01:42:48.734Z,95765.66
2022-08-12T01:45:23.428Z,95757.59
2022-08-12T01:48:13.527Z,95767.44
2022-08-12T01:51:24.468Z,95773.63
2022-08-12T01:54:13.161Z,95770.78
2022-08-12T01:56:43.451Z,95765.03
2022-08-12T01:59:36.187Z,95756.44
2022-08-12T02:02:10.472Z,95769.09
2022-08-12T02:05:33.248Z,95764.16
2022-08-12T02:08:29.201Z,95763.41
2022-08-12T02:11:23.318Z,95758.97
2022-08-12T02:13:57.789Z,95773.09
2022-08-12T02:16:59.309Z,95773.44
2022-08-12T02:20:15.197Z,95774.03
2022-08-12T02:22:45.939Z,95776.19
2022-08-12T02:25:21.860Z,95773.50
2022-08-12T02:27:53.737Z,95778.41
2022-08-12T02:30:25.403Z,95776.78
2022-08-12T02:33:06.679Z,95783.22
2022-08-12T02:35:37.301Z,95786.47
2022-08-12T02:38:11.627Z,95779.50
2022-08-12T02:40:47.361Z,95771.81
2022-08-12T02:43:24.960Z,95760.41
2022-08-12T02:45:58.327Z,95761.59
2022-08-12T02:48:36.625Z,95763.00
2022-08-12T02:51:07.624Z,95769.09
2022-08-12T02:53:38.948Z,95762.00
2022-08-12T02:56:08.301Z,95768.56
2022-08-12T02:58:41.311Z,95768.63
2022-08-12T03:01:15.240Z,95765.81
2022-08-12T03:03:47.152Z,95751.59
2022-08-12T03:06:22.183Z,95757.59
2022-08-12T03:08:57.988Z,95749.94
2022-08-12T03:11:41.671Z,95762.63
2022-08-12T03:14:15.655Z,95758.78
2022-08-12T03:16:50.836Z,95762.47
2022-08-12T03:19:22.138Z,95758.59
2022-08-12T03:22:09.169Z,95765.94
2022-08-12T03:24:43.105Z,95767.34
2022-08-12T03:27:14.670Z,95769.09
2022-08-12T03:29:50.258Z,95773.16
2022-08-12T03:32:35.955Z,95781.09
2022-08-12T03:35:08.320Z,95775.53
2022-08-12T03:37:38.152Z,95784.88
2022-08-12T03:40:10.232Z,95784.22
2022-08-12T03:42:52.404Z,95764.22
2022-08-12T03:45:52.537Z,95752.41
2022-08-12T03:48:40.822Z,95749.34
2022-08-12T03:51:30.192Z,95745.78
2022-08-12T03:54:18.059Z,95743.78
2022-08-12T03:57:05.151Z,95751.66
2022-08-12T03:59:52.333Z,95746.00
2022-08-12T04:02:22.497Z,95745.81
2022-08-12T04:04:51.824Z,95744.19
2022-08-12T04:07:21.779Z,95748.66
2022-08-12T04:09:50.808Z,95749.38
2022-08-12T04:12:37.718Z,95746.19
2022-08-12T04:15:07.177Z,95737.78
2022-08-12T04:18:06.408Z,95740.31
2022-08-12T04:20:29.479Z,95731.66
2022-08-12T04:22:59.503Z,95734.88
2022-08-12T04:25:30.922Z,95727.25
2022-08-12T04:28:12.987Z,95728.72
2022-08-12T04:30:42.656Z,95733.84
2022-08-12T04:33:13.119Z,95727.31
2022-08-12T04:35:42.081Z,95731.09
2022-08-12T04:38:12.578Z,95740.59
2022-08-12T04:40:41.914Z,95735.94
2022-08-12T04:44:00.422Z,95730.91
2022-08-12T04:45:59.839Z,95734.38
2022-08-12T04:48:28.581Z,95732.53
2022-08-12T04:50:59.722Z,95722.53
2022-08-12T04:53:29.234Z,95711.91
2022-08-12T04:55:58.314Z,95711.09
2022-08-12T04:58:29.967Z,95703.16
2022-08-12T05:00:59.395Z,95708.78
2022-08-12T05:03:29.216Z,95708.16
2022-08-12T05:06:26.393Z,95715.47
2022-08-12T05:08:58.034Z,95699.47
2022-08-12T05:11:27.462Z,95692.22
2022-08-12T05:14:02.914Z,95694.25
2022-08-12T05:16:34.358Z,95689.06
2022-08-12T05:19:05.955Z,95685.41
2022-08-12T05:21:41.949Z,95675.09
2022-08-12T05:24:10.989Z,95679.28
2022-08-12T05:26:39.752Z,95679.50
2022-08-12T05:30:06.790Z,95662.09
2022-08-12T05:32:03.896Z,95661.50
2022-08-12T05:34:35.054Z,95653.31
2022-08-12T05:37:04.067Z,95668.94
2022-08-12T05:39:32.867Z,95675.53
2022-08-12T05:42:02.189Z,95665.31
2022-08-12T05:44:30.923Z,95670.69
2022-08-12T05:46:59.815Z,95660.53
2022-08-12T05:49:30.311Z,95653.22
2022-08-12T05:51:59.383Z,95655.41
2022-08-12T05:54:47.627Z,95647.91
2022-08-12T05:57:17.337Z,95648.69
2022-08-12T05:59:46.190Z,95650.41
2022-08-12T06:02:15.407Z,95646.88
2022-08-12T06:04:44.373Z,95648.63
2022-08-12T06:07:59.710Z,95648.41
2022-08-12T06:10:03.490Z,95638.28
2022-08-12T06:12:32.316Z,95644.63
2022-08-12T06:15:01.058Z,95639.78
2022-08-12T06:17:32.061Z,95637.81
2022-08-12T06:20:27.565Z,95642.00
2022-08-12T06:22:49.708Z,95639.69
2022-08-12T06:25:23.750Z,95634.44
2022-08-12T06:28:07.985Z,95622.94
2022-08-12T06:30:39.552Z,95627.16
2022-08-12T06:33:55.789Z,95629.66
2022-08-12T06:35:58.901Z,95623.25
2022-08-12T06:38:29.743Z,95622.16
2022-08-12T06:41:19.369Z,95630.91
2022-08-12T06:44:06.802Z,95652.16
2022-08-12T06:46:40.086Z,95643.00
2022-08-12T06:49:12.944Z,95638.59
2022-08-12T06:51:41.939Z,95629.88
2022-08-12T06:54:29.847Z,95620.03
2022-08-12T06:57:57.289Z,95621.41
2022-08-12T06:59:52.467Z,95618.09
2022-08-12T07:02:23.432Z,95609.66
2022-08-12T07:04:53.275Z,95602.97
2022-08-12T07:07:22.091Z,95594.09
2022-08-12T07:10:03.956Z,95585.56
2022-08-12T07:12:37.473Z,95590.03
2022-08-12T07:15:07.094Z,95567.81
2022-08-12T07:17:38.828Z,95574.09
2022-08-12T07:20:13.702Z,95572.72
2022-08-12T07:22:50.254Z,95570.72
2022-08-12T07:25:37.878Z,95566.59
2022-08-12T07:28:24.146Z,95557.03
2022-08-12T07:30:55.541Z,95568.13
2022-08-12T07:33:28.749Z,95558.00
2022-08-12T07:36:00.019Z,95565.69
2022-08-12T07:38:39.254Z,95571.94
2022-08-12T07:41:14.592Z,95582.75
2022-08-12T07:43:48.745Z,95558.25
2022-08-12T07:46:21.088Z,95557.19
2022-08-12T07:49:10.711Z,95563.72
2022-08-12T07:51:40.960Z,95553.13
2022-08-12T07:54:10.500Z,95548.19
2022-08-12T07:56:41.657Z,95532.06
2022-08-12T07:59:11.457Z,95534.00
2022-08-12T08:01:40.900Z,95535.03
2022-08-12T08:04:27.933Z,95522.66
2022-08-12T08:06:58.842Z,95535.22
2022-08-12T08:09:28.096Z,95529.88
2022-08-12T08:12:18.609Z,95521.06
2022-08-12T08:14:50.027Z,95511.78
2022-08-12T08:17:19.233Z,95517.84
2022-08-12T08:20:03.649Z,95518.91
2022-08-12T08:22:41.373Z,95504.38
2022-08-12T08:25:34.664Z,95514.06
2022-08-12T08:28:06.472Z,95520.50
2022-08-12T08:30:38.925Z,95511.81
2022-08-12T08:33:20.121Z,95518.06
2022-08-12T08:35:54.385Z,95529.66
2022-08-12T08:38:33.333Z,95525.56
2022-08-12T08:42:14.156Z,95542.91
2022-08-12T08:44:12.636Z,95551.81
2022-08-12T08:46:45.103Z,95560.16
2022-08-12T08:49:16.019Z,95564.94
2022-08-12T08:51:46.162Z,95558.94
2022-08-12T08:54:15.030Z,95560.31
2022-08-12T08:56:45.113Z,95559.03
2022-08-12T08:59:14.821Z,95555.34
2022-08-12T09:01:44.784Z,95561.94
2022-08-12T09:05:14.400Z,95556.47
2022-08-12T09:10:02.999Z,95548.41
2022-08-12T09:12:54.812Z,95565.47
2022-08-12T09:15:41.697Z,95577.72
2022-08-12T09:18:12.461Z,95599.59
2022-08-12T09:20:44.248Z,95588.25
2022-08-12T09:24:00.981Z,95597.09
2022-08-12T09:26:09.805Z,95590.56
2022-08-12T09:28:41.631Z,95599.69
2022-08-12T09:32:06.748Z,95598.25
2022-08-12T09:34:29.213Z,95590.09
2022-08-12T09:37:00.375Z,95608.28
2022-08-12T09:40:06.398Z,95591.53
2022-08-12T09:42:53.126Z,95600.28
2022-08-12T09:46:06.177Z,95604.88
2022-08-12T09:48:20.033Z,95586.81
2022-08-12T09:50:55.134Z,95585.72
2022-08-12T09:53:29.246Z,95583.41
2022-08-12T09:56:58.791Z,95578.88
2022-08-12T09:59:00.652Z,95594.47
2022-08-12T10:01:35.254Z,95588.28
2022-08-12T10:04:21.814Z,95600.53
2022-08-12T10:06:54.233Z,95597.06
2022-08-12T10:09:28.792Z,95599.03
2022-08-12T10:12:33.385Z,95599.72
2022-08-12T10:15:03.017Z,95601.72
2022-08-12T10:17:31.763Z,95603.66
2022-08-12T10:20:01.764Z,95597.53
2022-08-12T10:22:39.045Z,95582.91
2022-08-12T10:25:51.630Z,95590.91
2022-08-12T10:28:38.906Z,95604.03
2022-08-12T10:31:15.923Z,95605.53
2022-08-12T10:34:05.063Z,95606.44
2022-08-12T10:36:43.102Z,95600.03
2022-08-12T10:40:00.654Z,95598.84
2022-08-12T10:42:29.910Z,95604.44
2022-08-12T10:45:02.537Z,95610.59
2022-08-12T10:48:07.181Z,95601.91
2022-08-12T10:50:29.652Z,95606.66
2022-08-12T10:53:09.593Z,95606.91
2022-08-12T10:55:38.458Z,95601.88
2022-08-12T10:58:15.609Z,95595.22
2022-08-12T11:01:49.715Z,95594.75
2022-08-12T11:04:35.687Z,95598.94
2022-08-12T11:07:09.386Z,95604.06
2022-08-12T11:09:54.413Z,95590.25
2022-08-12T11:12:55.864Z,95599.56
2022-08-12T11:15:14.796Z,95604.41
2022-08-12T11:17:53.699Z,95611.66
2022-08-12T11:20:29.083Z,95612.44
2022-08-12T11:23:03.802Z,95609.09
2022-08-12T11:25:56.743Z,95619.50
2022-08-12T11:28:35.123Z,95619.28
2022-08-12T11:31:11.924Z,95622.91
2022-08-12T11:34:04.545Z,95625.63
2022-08-12T11:36:32.904Z,95622.78
2022-08-12T11:39:08.082Z,95628.72
2022-08-12T11:41:43.002Z,95639.16
2022-08-12T11:44:35.837Z,95635.06
2022-08-12T11:47:00.865Z,95641.94
2022-08-12T11:49:32.761Z,95623.44
2022-08-12T11:52:02.771Z,95627.56
2022-08-12T11:54:33.401Z,95641.94
2022-08-12T11:58:01.231Z,95635.75
2022-08-12T12:02:42.007Z,95646.88
2022-08-12T12:05:11.384Z,95648.13
2022-08-12T12:08:37.092Z,95646.16
2022-08-12T12:10:32.182Z,95659.66
2022-08-12T12:13:00.972Z,95665.38
2022-08-12T12:15:40.810Z,95673.50
2022-08-12T12:18:30.766Z,95675.69
2022-08-12T12:21:09.885Z,95688.31
2022-08-12T12:23:39.552Z,95689.56
2022-08-12T12:26:35.644Z,95685.13
2022-08-12T12:29:07.846Z,95688.31
2022-08-12T12:32:09.084Z,95690.63
2022-08-12T12:34:40.148Z,95679.38
2022-08-12T12:38:04.103Z,95683.31
2022-08-12T12:40:17.877Z,95693.63
2022-08-12T12:42:56.007Z,95697.38
2022-08-12T12:45:33.299Z,95698.75
2022-08-12T12:48:04.699Z,95705.56
2022-08-12T12:50:51.289Z,95700.31
2022-08-12T12:54:05.847Z,95709.75
2022-08-12T12:56:18.389Z,95722.38
2022-08-12T12:58:50.327Z,95717.09
2022-08-12T13:01:27.845Z,95716.50
2022-08-12T13:04:01.862Z,95725.53
2022-08-12T13:06:32.755Z,95722.19
2022-08-12T13:09:04.065Z,95724.97
2022-08-12T13:11:41.635Z,95728.25
2022-08-12T13:14:28.925Z,95722.19
2022-08-12T13:17:02.747Z,95731.22
2022-08-12T13:19:44.566Z,95727.78
2022-08-12T13:22:19.335Z,95730.19
2022-08-12T13:24:56.042Z,95724.78
2022-08-12T13:27:34.690Z,95726.34
2022-08-12T13:30:16.093Z,95736.84
2022-08-12T13:32:56.820Z,95728.00
2022-08-12T13:35:33.305Z,95733.47
2022-08-12T13:38:03.312Z,95740.84
2022-08-12T13:40:34.271Z,95755.25
2022-08-12T13:43:06.937Z,95752.59
2022-08-12T13:45:36.849Z,95749.50
2022-08-12T13:48:07.645Z,95746.84
2022-08-12T13:50:38.694Z,95753.44
2022-08-12T13:53:23.501Z,95747.63
2022-08-12T13:55:59.149Z,95756.16
2022-08-12T13:58:28.814Z,95751.47
2022-08-12T14:01:08.939Z,95757.72
2022-08-12T14:03:51.441Z,95753.47
2022-08-12T14:06:25.902Z,95769.41
2022-08-12T14:08:59.573Z,95770.56
2022-08-12T14:11:32.350Z,95769.44
2022-08-12T14:14:04.342Z,95768.72
2022-08-12T14:16:51.301Z,95767.22
2022-08-12T14:19:23.356Z,95762.94
2022-08-12T14:22:01.604Z,95756.81
2022-08-12T14:24:40.099Z,95766.44
2022-08-12T14:27:12.804Z,95764.09
2022-08-12T14:30:05.815Z,95768.03
2022-08-12T14:32:36.128Z,95771.97
2022-08-12T14:35:09.195Z,95773.53
2022-08-12T14:37:55.628Z,95770.88
2022-08-12T14:40:30.135Z,95774.75
2022-08-12T14:42:59.582Z,95771.66
2022-08-12T14:45:44.390Z,95780.59
2022-08-12T14:48:24.327Z,95783.72
2022-08-12T14:52:07.892Z,95778.72
2022-08-12T14:59:56.647Z,95783.03
2022-08-12T15:02:29.224Z,95788.06
2022-08-12T15:05:03.473Z,95786.19
2022-08-12T15:07:43.754Z,95787.72
2022-08-12T15:10:31.875Z,95797.81
2022-08-12T15:13:08.247Z,95801.72
2022-08-12T15:15:43.686Z,95785.88
2022-08-12T15:18:21.766Z,95779.31
2022-08-12T15:20:57.849Z,95792.88
2022-08-12T15:23:45.694Z,95785.47
2022-08-12T15:26:28.327Z,95755.34
2022-08-12T15:28:59.046Z,95778.91
2022-08-12T15:31:40.693Z,95788.19
2022-08-12T15:34:16.496Z,95790.50
2022-08-12T15:36:55.202Z,95784.31
2022-08-12T15:39:24.479Z,95780.84
2022-08-12T15:41:56.549Z,95789.00
2022-08-12T15:44:38.155Z,95796.38
2022-08-12T15:47:10.570Z,95792.88
2022-08-12T15:49:54.458Z,95787.81
2022-08-12T15:52:30.157Z,95794.81
2022-08-12T15:55:06.023Z,95808.00
2022-08-12T15:57:53.299Z,95796.34
2022-08-12T16:00:33.357Z,95801.78
2022-08-12T16:03:14.296Z,95804.13
2022-08-12T16:06:11.280Z,95807.59
2022-08-12T16:08:44.682Z,95799.88
2022-08-12T16:11:15.669Z,95798.72
2022-08-12T16:13:47.943Z,95804.13
2022-08-12T16:16:23.924Z,95799.88
2022-08-12T16:19:01.991Z,95801.44
2022-08-12T16:21:51.932Z,95801.44
2022-08-12T16:24:22.171Z,95798.38
2022-08-12T16:26:55.090Z,95801.06
2022-08-12T16:29:38.685Z,95796.03
2022-08-12T16:32:24.027Z,95796.41
2022-08-12T16:34:54.770Z,95789.81
2022-08-12T16:38:04.669Z,95787.88
2022-08-12T16:40:15.320Z,95776.72
2022-08-12T16:42:54.302Z,95792.53
2022-08-12T16:46:05.319Z,95796.81
2022-08-12T16:48:34.622Z,95787.16
2022-08-12T16:51:13.496Z,95787.56
2022-08-12T16:53:45.355Z,95787.16
2022-08-12T16:56:18.071Z,95789.47
2022-08-12T16:58:48.421Z,95785.22
2022-08-12T17:01:21.991Z,95784.44
2022-08-12T17:04:08.852Z,95776.31
2022-08-12T17:06:44.238Z,95785.22
2022-08-12T17:09:17.412Z,95780.56
2022-08-12T17:11:50.463Z,95783.28
2022-08-12T17:14:23.634Z,95782.16
2022-08-12T17:16:55.910Z,95786.41
2022-08-12T17:20:30.620Z,95779.47
2022-08-12T17:22:21.689Z,95787.59
2022-08-12T17:24:55.600Z,95777.19
2022-08-12T17:27:32.010Z,95781.88
2022-08-12T17:30:05.029Z,95768.34
2022-08-12T17:32:36.884Z,95779.19
2022-08-12T17:35:36.899Z,95760.63
2022-08-12T17:38:14.229Z,95764.09
2022-08-12T17:40:46.169Z,95767.94
2022-08-12T17:43:56.295Z,95769.50
2022-08-12T17:46:12.865Z,95764.47
2022-08-12T17:48:54.892Z,95768.72
2022-08-12T17:51:25.231Z,95764.47
2022-08-12T17:54:10.667Z,95773.38
2022-08-12T17:56:43.252Z,95770.28
2022-08-12T17:59:13.296Z,95773.78
2022-08-12T18:01:46.620Z,95774.94
2022-08-12T18:04:21.906Z,95776.13
2022-08-12T18:06:52.873Z,95776.13
2022-08-12T18:09:24.757Z,95771.13
2022-08-12T18:12:29.711Z,95769.59
2022-08-12T18:15:26.911Z,95772.31
2022-08-12T18:18:16.503Z,95765.38
2022-08-12T18:20:46.853Z,95768.06
2022-08-12T18:23:15.562Z,95761.50
2022-08-12T18:26:17.522Z,95769.25
2022-08-12T18:28:48.161Z,95769.25
2022-08-12T18:31:23.875Z,95756.50
2022-08-12T18:33:53.115Z,95764.22
2022-08-12T18:36:23.418Z,95762.28
2022-08-12T18:38:59.435Z,95756.50
2022-08-12T18:41:34.671Z,95730.97
2022-08-12T18:44:09.985Z,95748.72
2022-08-12T18:46:47.646Z,95757.63
2022-08-12T18:49:34.648Z,95758.78
2022-08-12T18:52:07.909Z,95755.28
2022-08-12T18:54:48.929Z,95747.94
2022-08-12T18:57:45.593Z,95751.03
2022-08-12T19:00:22.058Z,95745.63
2022-08-12T19:02:54.989Z,95747.56
2022-08-12T19:05:54.167Z,95750.28
2022-08-12T19:08:15.519Z,95751.81
2022-08-12T19:10:51.140Z,95745.22
2022-08-12T19:13:40.466Z,95739.81
2022-08-12T19:16:12.188Z,95741.72
2022-08-12T19:18:44.626Z,95737.47
2022-08-12T19:21:16.100Z,95733.19
2022-08-12T19:24:05.899Z,95745.94
2022-08-12T19:26:37.968Z,95744.75
2022-08-12T19:29:08.620Z,95747.84
2022-08-12T19:31:57.562Z,95743.19
2022-08-12T19:38:03.248Z,95746.28
2022-08-12T19:40:32.590Z,95742.41
2022-08-12T19:43:17.955Z,95751.69
2022-08-12T19:45:51.922Z,95746.69
2022-08-12T19:48:25.058Z,95747.09
2022-08-12T19:51:09.293Z,95718.91
2022-08-12T19:53:57.432Z,95733.63
2022-08-12T19:56:28.684Z,95738.28
2022-08-12T19:59:20.859Z,95737.88
2022-08-12T20:02:03.144Z,95742.13
2022-08-12T20:04:38.033Z,95735.94
2022-08-12T20:07:23.996Z,95745.56
2022-08-12T20:09:54.895Z,95744.00
2022-08-12T20:12:53.737Z,95734.69
2022-08-12T20:15:22.566Z,95739.69
2022-08-12T20:17:57.065Z,95738.09
2022-08-12T20:20:29.389Z,95740.03
2022-08-12T20:23:06.388Z,95743.09
2022-08-12T20:25:53.482Z,95734.56
2022-08-12T20:28:29.057Z,95740.72
2022-08-12T20:30:59.989Z,95745.34
2022-08-12T20:33:50.280Z,95744.59
2022-08-12T20:36:40.769Z,95743.03
2022-08-12T20:39:17.477Z,95746.13
2022-08-12T20:42:00.524Z,95743.00
2022-08-12T20:44:30.971Z,95744.56
2022-08-12T20:47:18.255Z,95741.09
2022-08-12T20:49:56.073Z,95744.19
2022-08-12T20:52:34.123Z,95738.84
2022-08-12T20:55:06.549Z,95743.09
2022-08-12T20:58:02.208Z,95741.19
2022-08-12T21:00:33.988Z,95740.81
2022-08-12T21:03:23.420Z,95739.31
2022-08-12T21:06:13.574Z,95732.75
2022-08-12T21:08:44.344Z,95732.38
2022-08-12T21:11:13.173Z,95734.31
2022-08-12T21:13:42.365Z,95752.09
2022-08-12T21:16:12.232Z,95747.88
2022-08-12T21:18:41.801Z,95749.44
2022-08-12T21:21:22.913Z,95733.59
2022-08-12T21:23:56.297Z,95752.16
2022-08-12T21:26:29.945Z,95747.13
2022-08-12T21:29:01.493Z,95749.03
2022-08-12T21:32:36.344Z,95748.66
2022-08-12T21:34:29.096Z,95749.81
2022-08-12T21:37:26.968Z,95749.03
2022-08-12T21:39:56.410Z,95754.09
2022-08-12T21:42:28.023Z,95755.25
2022-08-12T21:45:45.978Z,95730.94
2022-08-12T21:47:53.360Z,95750.66
2022-08-12T21:50:22.397Z,95743.69
2022-08-12T21:52:58.220Z,95744.06
2022-08-12T21:55:27.926Z,95737.47
2022-08-12T21:58:02.635Z,95751.78
2022-08-12T22:00:34.791Z,95744.81
2022-08-12T22:04:01.255Z,95742.50
2022-08-12T22:06:31.134Z,95740.59
2022-08-12T22:09:16.437Z,95739.44
2022-08-12T22:11:58.575Z,95744.09
2022-08-12T22:14:31.407Z,95746.41
2022-08-12T22:17:05.016Z,95735.22
2022-08-12T22:19:35.403Z,95756.09
2022-08-12T22:22:05.752Z,95750.66
2022-08-12T22:24:35.208Z,95760.34
2022-08-12T22:27:22.903Z,95766.50
2022-08-12T22:30:19.918Z,95760.34
2022-08-12T22:32:50.587Z,95758.81
2022-08-12T22:35:55.464Z,95748.72
2022-08-12T22:38:29.330Z,95753.38
2022-08-12T22:41:00.877Z,95757.25
2022-08-12T22:44:00.815Z,95759.16
2022-08-12T22:46:52.432Z,95759.13
2022-08-12T22:49:49.356Z,95761.84
2022-08-12T22:52:22.741Z,95766.09
2022-08-12T22:55:03.261Z,95771.09
2022-08-12T22:57:53.872Z,95776.50
2022-08-12T23:00:27.928Z,95771.88
2022-08-12T23:03:02.802Z,95756.81
2022-08-12T23:05:57.577Z,95764.19
2022-08-12T23:08:30.125Z,95766.50
2022-08-12T23:11:05.861Z,95767.28
2022-08-12T23:13:55.303Z,95770.38
2022-08-12T23:16:31.778Z,95772.31
2022-08-12T23:19:10.691Z,95764.97
2022-08-12T23:22:06.513Z,95761.88
2022-08-12T23:24:55.367Z,95763.44
2022-08-12T23:27:51.526Z,95764.22
2022-08-12T23:30:31.814Z,95762.69
2022-08-12T23:33:19.924Z,95763.81
2022-08-12T23:36:02.279Z,95760.34
2022-08-12T23:38:33.576Z,95767.28
2022-08-12T23:41:07.135Z,95761.09
2022-08-12T23:43:41.037Z,95762.63
2022-08-12T23:46:19.257Z,95762.59
2022-08-12T23:49:01.155Z,95762.97
2022-08-12T23:51:32.050Z,95762.94
2022-08-12T23:54:04.121Z,95753.63
2022-08-12T23:56:34.142Z,95765.16
2022-08-12T23:59:05.248Z,95767.06
